Time;durP1;ratioP1;P1;durP2;ratioP2;P2;SDS_P1;SDS_P2;PMS_P1;PMS_P2;Temp;Humidity;BMP_temperature;BMP_pressure;BME280_temperature;BME280_humidity;BME280_pressure;Samples;Min_cycle;Max_cycle;Signal;HPM_P1;HPM_P2
2023/08/11 00:00:30;;;;;;;11.88;8.93;;;24.30;99.90;;;;;;5101029;28;20393;-71
2023/08/11 00:02:57;;;;;;;14.17;9.10;;;24.30;99.90;;;;;;5093675;28;20398;-71
2023/08/11 00:05:23;;;;;;;16.33;9.50;;;24.30;99.90;;;;;;5114123;27;20417;-71
2023/08/11 00:07:50;;;;;;;12.43;9.57;;;24.40;99.90;;;;;;5094432;28;20501;-72
2023/08/11 00:10:20;;;;;;;12.93;9.18;;;24.30;99.90;;;;;;5093025;28;20885;-72
2023/08/11 00:12:47;;;;;;;11.98;9.18;;;24.30;99.90;;;;;;5111866;27;20402;-71
2023/08/11 00:15:14;;;;;;;11.77;9.25;;;24.30;99.90;;;;;;5114470;27;20419;-71
2023/08/11 00:17:42;;;;;;;11.93;9.25;;;24.30;99.90;;;;;;5092779;28;20455;-71
2023/08/11 00:20:09;;;;;;;11.57;9.63;;;24.30;99.90;;;;;;5131598;27;20928;-71
2023/08/11 00:22:37;;;;;;;14.85;9.63;;;24.30;99.90;;;;;;5098507;27;20415;-71
2023/08/11 00:25:05;;;;;;;11.68;9.15;;;24.30;99.90;;;;;;5093931;28;21017;-71
2023/08/11 00:27:31;;;;;;;12.48;9.23;;;24.30;99.90;;;;;;5096612;27;20419;-71
2023/08/11 00:29:58;;;;;;;12.77;9.13;;;24.30;99.90;;;;;;5125533;27;20418;-71
2023/08/11 00:32:25;;;;;;;13.43;9.25;;;24.30;99.90;;;;;;5098608;28;20404;-71
2023/08/11 00:34:51;;;;;;;12.35;9.07;;;24.30;99.90;;;;;;5100033;27;20505;-71
2023/08/11 00:37:17;;;;;;;12.27;9.45;;;24.20;99.90;;;;;;5097705;27;20406;-71
2023/08/11 00:39:44;;;;;;;14.63;9.73;;;24.30;99.90;;;;;;5101576;27;20495;-71
2023/08/11 00:42:10;;;;;;;12.60;9.43;;;24.30;99.90;;;;;;5095514;28;20513;-71
2023/08/11 00:44:37;;;;;;;12.82;10.07;;;24.30;99.90;;;;;;5095383;28;20918;-72
2023/08/11 00:47:04;;;;;;;13.32;9.90;;;24.30;99.90;;;;;;5094874;27;21201;-71
2023/08/11 00:49:31;;;;;;;12.70;9.80;;;24.30;99.90;;;;;;5078909;27;20436;-71
2023/08/11 00:51:58;;;;;;;12.53;9.83;;;24.30;99.90;;;;;;5084044;28;20433;-70
2023/08/11 00:54:27;;;;;;;15.00;10.32;;;24.30;99.90;;;;;;5095390;27;20420;-70
2023/08/11 00:56:55;;;;;;;15.02;10.10;;;24.30;99.90;;;;;;5093390;27;20487;-70
2023/08/11 00:59:21;;;;;;;12.43;9.80;;;24.30;99.90;;;;;;5096147;27;20440;-70
2023/08/11 01:01:48;;;;;;;13.85;9.85;;;24.30;99.90;;;;;;5081925;28;20400;-70
2023/08/11 01:04:14;;;;;;;12.03;9.13;;;24.30;99.90;;;;;;5092989;28;20463;-70
2023/08/11 01:07:07;;;;;;;12.02;9.35;;;24.30;99.90;;;;;;5095091;27;20943;-71
2023/08/11 01:10:03;;;;;;;13.73;9.68;;;24.30;99.90;;;;;;5100724;27;20454;-70
2023/08/11 01:12:45;;;;;;;13.20;9.98;;;24.30;99.90;;;;;;5094149;28;20808;-71
2023/08/11 01:15:22;;;;;;;15.55;10.10;;;24.30;99.90;;;;;;5128013;27;20408;-70
2023/08/11 01:17:50;;;;;;;14.07;9.80;;;24.30;99.90;;;;;;5095764;27;20545;-70
2023/08/11 01:20:18;;;;;;;13.52;9.77;;;24.30;99.90;;;;;;5067808;28;20464;-72
2023/08/11 01:22:48;;;;;;;12.70;9.48;;;24.20;99.90;;;;;;5083721;27;20429;-72
2023/08/11 01:25:15;;;;;;;14.88;9.52;;;24.20;99.90;;;;;;5080038;27;20448;-72
2023/08/11 01:27:54;;;;;;;11.85;9.63;;;24.20;99.90;;;;;;5111946;27;20490;-72
2023/08/11 01:30:23;;;;;;;12.82;9.82;;;24.20;99.90;;;;;;5090873;27;20428;-72
2023/08/11 01:32:51;;;;;;;10.85;9.45;;;24.20;99.90;;;;;;5083035;27;20443;-73
2023/08/11 01:35:20;;;;;;;14.17;9.90;;;24.10;99.90;;;;;;5081993;27;20411;-72
2023/08/11 01:37:50;;;;;;;14.57;9.63;;;24.20;99.90;;;;;;5081503;27;20495;-73
2023/08/11 01:40:16;;;;;;;14.13;9.15;;;24.10;99.90;;;;;;5086780;27;20456;-73
2023/08/11 01:42:45;;;;;;;12.95;9.45;;;24.10;99.90;;;;;;5084237;27;20468;-73
2023/08/11 01:45:15;;;;;;;12.10;9.63;;;24.10;99.90;;;;;;5083961;27;20436;-73
2023/08/11 01:47:46;;;;;;;14.13;9.80;;;24.10;99.90;;;;;;5108943;27;20496;-73
2023/08/11 01:50:15;;;;;;;13.50;9.50;;;24.10;99.90;;;;;;5081219;27;20415;-73
2023/08/11 01:52:47;;;;;;;12.50;9.27;;;24.00;99.90;;;;;;5079437;27;20831;-73
2023/08/11 01:55:14;;;;;;;12.20;9.32;;;24.00;99.90;;;;;;5062423;28;20419;-73
2023/08/11 01:57:42;;;;;;;12.00;9.30;;;24.00;99.90;;;;;;5082301;27;20427;-73
2023/08/11 02:00:12;;;;;;;12.60;9.13;;;24.00;99.90;;;;;;5098862;27;20781;-73
2023/08/11 02:02:43;;;;;;;13.23;9.50;;;24.00;99.90;;;;;;5080305;27;20416;-73
2023/08/11 02:05:11;;;;;;;10.35;9.30;;;24.00;99.90;;;;;;5085576;27;20414;-73
2023/08/11 02:07:39;;;;;;;14.43;9.80;;;24.00;99.90;;;;;;5061239;28;20399;-73
2023/08/11 02:10:08;;;;;;;13.93;9.40;;;23.90;99.90;;;;;;5081238;28;20452;-72
2023/08/11 02:12:36;;;;;;;12.80;9.50;;;23.80;99.90;;;;;;5086640;27;21104;-72
2023/08/11 02:15:05;;;;;;;11.98;9.88;;;23.80;99.90;;;;;;5076100;27;20514;-72
2023/08/11 02:17:32;;;;;;;12.68;9.35;;;23.90;99.90;;;;;;5077371;28;20417;-73
2023/08/11 02:20:00;;;;;;;13.85;9.88;;;23.80;99.90;;;;;;5080593;28;20408;-72
2023/08/11 02:22:27;;;;;;;12.23;9.97;;;23.90;99.90;;;;;;5059891;28;22289;-73
2023/08/11 02:24:53;;;;;;;17.27;10.63;;;23.90;99.90;;;;;;5120573;27;20533;-72
2023/08/11 02:27:20;;;;;;;13.35;9.63;;;23.90;99.90;;;;;;5068109;28;20427;-72
2023/08/11 02:29:46;;;;;;;16.83;10.68;;;23.80;99.90;;;;;;5084882;28;20522;-72
2023/08/11 02:32:13;;;;;;;12.98;9.80;;;23.80;99.90;;;;;;5083060;28;20420;-72
2023/08/11 02:34:41;;;;;;;14.98;10.32;;;23.80;99.90;;;;;;5078365;28;20442;-72
2023/08/11 02:37:08;;;;;;;12.65;10.02;;;23.80;99.90;;;;;;5081734;28;20413;-72
2023/08/11 02:39:35;;;;;;;11.93;9.60;;;23.70;99.90;;;;;;5095700;27;20906;-72
2023/08/11 02:42:01;;;;;;;11.90;9.65;;;23.70;99.90;;;;;;5112725;27;21069;-73
2023/08/11 02:44:27;;;;;;;13.25;9.25;;;23.70;99.90;;;;;;5096920;27;20411;-72
2023/08/11 02:46:53;;;;;;;11.25;9.30;;;23.70;99.90;;;;;;5084080;28;20421;-72
2023/08/11 02:49:19;;;;;;;11.07;9.35;;;23.70;99.90;;;;;;5084962;28;20632;-72
2023/08/11 02:51:46;;;;;;;12.37;9.43;;;23.70;99.90;;;;;;5094165;27;20456;-73
2023/08/11 02:54:12;;;;;;;13.32;10.00;;;23.60;99.90;;;;;;5085025;28;20407;-72
2023/08/11 02:56:47;;;;;;;13.73;10.15;;;23.70;99.90;;;;;;5081093;28;20471;-72
2023/08/11 02:59:13;;;;;;;15.67;9.83;;;23.60;99.90;;;;;;5076777;28;20503;-72
2023/08/11 03:01:40;;;;;;;13.15;10.10;;;23.60;99.90;;;;;;5080828;28;22298;-72
2023/08/11 03:04:07;;;;;;;12.93;10.32;;;23.60;99.90;;;;;;5084405;28;21361;-72
2023/08/11 03:06:34;;;;;;;11.65;9.77;;;23.60;99.90;;;;;;5077401;28;20423;-72
2023/08/11 03:09:00;;;;;;;15.52;9.77;;;23.60;99.90;;;;;;5084303;28;20476;-72
2023/08/11 03:11:26;;;;;;;12.15;9.40;;;23.60;99.90;;;;;;5078824;27;20410;-72
2023/08/11 03:13:54;;;;;;;12.30;9.35;;;23.60;99.90;;;;;;5111232;27;20413;-73
2023/08/11 03:16:20;;;;;;;12.02;9.32;;;23.60;99.90;;;;;;5079136;27;20516;-72
2023/08/11 03:18:46;;;;;;;15.43;10.15;;;23.60;99.90;;;;;;5082982;28;20469;-72
2023/08/11 03:21:12;;;;;;;12.57;9.32;;;23.60;99.90;;;;;;5083574;27;20503;-72
2023/08/11 03:23:39;;;;;;;15.60;10.02;;;23.60;99.90;;;;;;5086341;27;20432;-72
2023/08/11 03:26:05;;;;;;;13.95;9.73;;;23.60;99.90;;;;;;5093785;27;20412;-72
2023/08/11 03:28:31;;;;;;;15.07;9.70;;;23.60;99.90;;;;;;5086467;27;20557;-72
2023/08/11 03:30:59;;;;;;;13.13;10.13;;;23.60;99.90;;;;;;5083382;27;20490;-72
2023/08/11 03:33:25;;;;;;;12.07;9.63;;;23.50;99.90;;;;;;5068434;28;20588;-72
2023/08/11 03:35:52;;;;;;;12.32;9.55;;;23.60;99.90;;;;;;5088780;27;21191;-72
2023/08/11 03:38:18;;;;;;;11.95;9.65;;;23.50;99.90;;;;;;5082983;27;20416;-72
2023/08/11 03:40:44;;;;;;;15.18;9.55;;;23.50;99.90;;;;;;5088387;27;20998;-72
2023/08/11 03:43:10;;;;;;;16.02;10.23;;;23.50;99.90;;;;;;5112826;27;20475;-72
2023/08/11 03:45:37;;;;;;;15.20;10.13;;;23.50;99.90;;;;;;5083691;27;20395;-72
2023/08/11 03:48:03;;;;;;;13.82;9.65;;;23.50;99.90;;;;;;5063490;28;20906;-72
2023/08/11 03:50:30;;;;;;;13.45;9.82;;;23.60;99.90;;;;;;5087222;27;20407;-73
2023/08/11 03:52:56;;;;;;;13.50;9.93;;;23.60;99.90;;;;;;5066195;27;20499;-73
2023/08/11 03:55:22;;;;;;;15.70;10.35;;;23.60;99.90;;;;;;5087354;27;21021;-73
2023/08/11 03:57:49;;;;;;;13.00;10.70;;;23.70;99.90;;;;;;5103324;27;21073;-74
2023/08/11 04:00:15;;;;;;;14.18;9.75;;;23.70;99.90;;;;;;5081319;27;20413;-73
2023/08/11 04:02:45;;;;;;;14.90;10.60;;;23.70;99.90;;;;;;5114284;27;20412;-74
2023/08/11 04:05:16;;;;;;;12.30;10.27;;;23.80;99.90;;;;;;5084862;27;20423;-73
2023/08/11 04:07:43;;;;;;;11.70;9.80;;;23.80;99.90;;;;;;5108822;27;20495;-73
2023/08/11 04:10:13;;;;;;;10.95;9.50;;;23.80;99.90;;;;;;5088579;27;20859;-73
2023/08/11 04:12:39;;;;;;;12.77;10.43;;;23.80;99.90;;;;;;5084087;28;20481;-73
2023/08/11 04:15:06;;;;;;;15.25;10.50;;;23.90;99.90;;;;;;5066997;28;20402;-73
2023/08/11 04:17:33;;;;;;;14.57;10.60;;;23.90;99.90;;;;;;5089852;27;20965;-73
2023/08/11 04:20:00;;;;;;;13.95;10.13;;;24.00;99.90;;;;;;5084401;27;20420;-73
2023/08/11 04:22:26;;;;;;;14.75;10.45;;;24.00;99.90;;;;;;5081169;27;20432;-73
2023/08/11 04:24:53;;;;;;;12.52;10.50;;;24.00;99.90;;;;;;5064288;28;20409;-73
2023/08/11 04:27:19;;;;;;;14.03;10.13;;;24.00;99.90;;;;;;5079865;28;20482;-73
2023/08/11 04:29:46;;;;;;;11.57;10.25;;;24.10;99.90;;;;;;5079611;27;20493;-73
2023/08/11 04:32:12;;;;;;;14.18;10.30;;;24.10;99.90;;;;;;5089255;27;20404;-73
2023/08/11 04:34:38;;;;;;;12.70;10.00;;;24.10;99.90;;;;;;5086764;27;20941;-72
2023/08/11 04:37:08;;;;;;;15.70;10.73;;;24.10;99.90;;;;;;5083723;27;20920;-72
2023/08/11 04:39:36;;;;;;;13.27;10.85;;;24.20;99.90;;;;;;5082169;27;20429;-72
2023/08/11 04:42:03;;;;;;;15.40;10.97;;;24.20;99.90;;;;;;5078621;27;20769;-72
2023/08/11 04:44:29;;;;;;;16.30;11.57;;;24.30;99.90;;;;;;5074605;28;20408;-72
2023/08/11 04:46:55;;;;;;;15.65;10.80;;;24.30;99.90;;;;;;5107444;27;20961;-72
2023/08/11 04:49:21;;;;;;;15.30;10.98;;;24.30;99.90;;;;;;5094881;27;21129;-72
2023/08/11 04:51:48;;;;;;;15.30;10.65;;;24.30;99.90;;;;;;5093886;27;20888;-72
2023/08/11 04:54:14;;;;;;;13.60;10.77;;;24.30;99.90;;;;;;5073892;27;20414;-73
2023/08/11 04:56:40;;;;;;;12.27;9.93;;;24.30;99.90;;;;;;5084779;27;20408;-72
2023/08/11 04:59:06;;;;;;;14.37;10.67;;;24.30;99.90;;;;;;5092133;28;20761;-72
2023/08/11 05:01:33;;;;;;;16.70;10.50;;;24.30;99.90;;;;;;5096619;28;20423;-73
2023/08/11 05:03:59;;;;;;;11.63;10.43;;;24.30;99.90;;;;;;5093647;28;20653;-72
2023/08/11 05:06:25;;;;;;;14.93;10.85;;;24.30;99.90;;;;;;5105044;27;20433;-72
2023/08/11 05:08:51;;;;;;;14.80;10.75;;;24.30;99.90;;;;;;5099114;28;20416;-73
2023/08/11 05:11:18;;;;;;;14.77;10.48;;;24.40;99.90;;;;;;5085640;28;20445;-74
2023/08/11 05:13:44;;;;;;;14.48;10.35;;;24.40;99.90;;;;;;5081474;28;20432;-74
2023/08/11 05:16:10;;;;;;;15.30;10.30;;;24.40;99.90;;;;;;5094524;28;20410;-74
2023/08/11 05:18:37;;;;;;;14.50;10.02;;;24.50;99.90;;;;;;5131556;27;20408;-74
2023/08/11 05:21:05;;;;;;;14.88;10.23;;;24.50;99.90;;;;;;5096031;28;20446;-74
2023/08/11 05:23:32;;;;;;;16.90;10.30;;;24.50;99.90;;;;;;5095453;27;20481;-74
2023/08/11 05:25:59;;;;;;;14.70;9.93;;;24.50;99.90;;;;;;5082566;28;20503;-72
2023/08/11 05:28:25;;;;;;;15.13;9.93;;;24.50;99.90;;;;;;5097529;28;20406;-72
2023/08/11 05:30:51;;;;;;;13.23;9.50;;;24.60;99.90;;;;;;5097975;28;20450;-72
2023/08/11 05:33:17;;;;;;;11.73;9.65;;;24.60;99.90;;;;;;5096680;28;21041;-72
2023/08/11 05:35:44;;;;;;;12.75;8.85;;;24.70;99.90;;;;;;5098365;28;20396;-72
2023/08/11 05:38:10;;;;;;;14.05;9.38;;;24.60;99.90;;;;;;5095095;27;20404;-72
2023/08/11 05:40:36;;;;;;;14.68;9.65;;;24.70;99.90;;;;;;5130608;27;20409;-72
2023/08/11 05:43:03;;;;;;;14.77;8.95;;;24.70;99.90;;;;;;5098911;28;20400;-72
2023/08/11 05:45:29;;;;;;;12.50;9.32;;;24.70;99.90;;;;;;5117709;27;20768;-72
2023/08/11 05:47:56;;;;;;;11.55;8.80;;;24.80;99.90;;;;;;5111400;27;20499;-72
2023/08/11 05:50:22;;;;;;;16.87;9.60;;;24.80;99.90;;;;;;5117851;27;20454;-72
2023/08/11 05:52:49;;;;;;;13.35;9.07;;;24.80;99.90;;;;;;5098014;27;20400;-72
2023/08/11 05:55:15;;;;;;;13.40;9.70;;;24.90;99.90;;;;;;5097652;28;20562;-72
2023/08/11 05:57:41;;;;;;;12.10;9.55;;;24.90;99.90;;;;;;5097131;28;20770;-72
2023/08/11 06:00:09;;;;;;;13.20;9.77;;;24.90;99.90;;;;;;5096005;27;20497;-72
2023/08/11 06:02:39;;;;;;;13.27;9.50;;;24.90;99.90;;;;;;5080832;28;20534;-72
2023/08/11 06:05:05;;;;;;;16.95;10.38;;;25.00;99.90;;;;;;5098882;28;20457;-72
2023/08/11 06:07:31;;;;;;;15.38;10.40;;;25.10;99.90;;;;;;5089227;28;20475;-73
2023/08/11 06:09:57;;;;;;;19.08;12.52;;;25.10;99.90;;;;;;5128237;27;20418;-73
2023/08/11 06:12:24;;;;;;;19.30;13.68;;;25.10;99.90;;;;;;5081730;28;20779;-73
2023/08/11 06:14:50;;;;;;;22.20;13.40;;;25.10;99.90;;;;;;5075897;28;20461;-73
2023/08/11 06:17:16;;;;;;;16.92;11.93;;;25.10;99.90;;;;;;5096825;28;20409;-73
2023/08/11 06:19:43;;;;;;;19.65;12.32;;;25.20;99.90;;;;;;5096244;28;20414;-73
2023/08/11 06:22:10;;;;;;;16.77;11.80;;;25.20;99.90;;;;;;5080528;28;20443;-73
2023/08/11 06:24:36;;;;;;;17.50;12.10;;;25.20;99.90;;;;;;5096100;28;20410;-72
2023/08/11 06:27:03;;;;;;;16.08;11.77;;;25.20;99.90;;;;;;5127858;27;21063;-73
2023/08/11 06:29:29;;;;;;;19.10;12.43;;;25.20;99.90;;;;;;5093917;28;20400;-73
2023/08/11 06:31:55;;;;;;;17.30;13.23;;;25.30;99.90;;;;;;5097456;28;20410;-72
2023/08/11 06:34:22;;;;;;;18.70;12.60;;;25.30;99.90;;;;;;5094725;28;20494;-72
2023/08/11 06:36:49;;;;;;;19.02;13.18;;;25.30;99.90;;;;;;5080446;28;20888;-73
2023/08/11 06:39:15;;;;;;;17.52;13.50;;;25.40;99.90;;;;;;5094142;28;20423;-73
2023/08/11 06:41:42;;;;;;;17.47;13.40;;;25.40;99.90;;;;;;5099742;28;20398;-73
2023/08/11 06:44:08;;;;;;;16.92;13.60;;;25.50;99.90;;;;;;5116990;27;20420;-73
2023/08/11 06:46:35;;;;;;;19.50;12.98;;;25.50;99.90;;;;;;5094499;28;20487;-73
2023/08/11 06:49:02;;;;;;;17.45;13.07;;;25.50;99.90;;;;;;5099181;28;20414;-73
2023/08/11 06:51:36;;;;;;;16.98;13.35;;;25.60;99.90;;;;;;5133730;27;20943;-73
2023/08/11 06:54:03;;;;;;;17.10;13.40;;;25.70;99.90;;;;;;5099715;27;20409;-72
2023/08/11 06:56:29;;;;;;;17.02;13.70;;;25.70;99.90;;;;;;5105716;28;20948;-72
2023/08/11 06:58:56;;;;;;;16.00;13.05;;;25.80;99.90;;;;;;5100461;28;20419;-73
2023/08/11 07:01:22;;;;;;;19.27;13.70;;;25.80;99.90;;;;;;5096966;27;20820;-72
2023/08/11 07:03:48;;;;;;;14.93;13.13;;;26.00;99.90;;;;;;5135604;27;20408;-72
2023/08/11 07:06:15;;;;;;;19.60;13.50;;;26.00;99.90;;;;;;5103394;28;20406;-72
2023/08/11 07:08:42;;;;;;;17.73;13.00;;;26.10;99.90;;;;;;5130144;27;20459;-72
2023/08/11 07:11:08;;;;;;;16.83;13.57;;;26.20;99.90;;;;;;5100758;27;20768;-74
2023/08/11 07:13:34;;;;;;;19.45;13.70;;;26.20;99.90;;;;;;5098574;28;20475;-72
2023/08/11 07:16:01;;;;;;;17.58;13.00;;;26.20;99.90;;;;;;5097795;28;20844;-72
2023/08/11 07:18:27;;;;;;;18.40;12.77;;;26.20;99.90;;;;;;5085121;28;20402;-72
2023/08/11 07:20:54;;;;;;;15.55;13.05;;;26.30;99.90;;;;;;5100481;28;20439;-73
2023/08/11 07:23:20;;;;;;;16.80;12.45;;;26.30;99.90;;;;;;5098488;27;20416;-74
2023/08/11 07:25:46;;;;;;;19.42;11.93;;;26.40;99.90;;;;;;5104513;27;20411;-74
2023/08/11 07:28:12;;;;;;;13.35;11.40;;;26.40;99.90;;;;;;5101699;28;20755;-73
2023/08/11 07:30:42;;;;;;;14.90;11.73;;;26.50;99.90;;;;;;5100608;27;20410;-72
2023/08/11 07:33:08;;;;;;;14.32;11.63;;;26.50;99.90;;;;;;5095262;28;20942;-72
2023/08/11 07:35:34;;;;;;;17.55;11.68;;;26.70;99.90;;;;;;5129902;27;20867;-72
2023/08/11 07:38:01;;;;;;;17.35;11.05;;;26.70;99.90;;;;;;5093517;28;20991;-72
2023/08/11 07:40:27;;;;;;;13.63;11.38;;;26.80;99.90;;;;;;5099246;27;20403;-72
2023/08/11 07:42:53;;;;;;;16.30;11.05;;;26.80;99.90;;;;;;5102530;27;20475;-72
2023/08/11 07:45:20;;;;;;;16.45;10.60;;;26.90;99.90;;;;;;5086833;28;20453;-73
2023/08/11 07:47:46;;;;;;;13.70;10.52;;;27.00;99.90;;;;;;5096446;28;20530;-73
2023/08/11 07:50:12;;;;;;;12.05;10.15;;;27.10;99.90;;;;;;5080089;28;20670;-73
2023/08/11 07:52:39;;;;;;;14.45;10.60;;;27.20;99.90;;;;;;5100017;28;20522;-73
2023/08/11 07:55:05;;;;;;;15.45;10.93;;;27.20;99.90;;;;;;5087495;28;20493;-73
2023/08/11 07:57:31;;;;;;;13.67;10.23;;;27.30;99.90;;;;;;5108263;27;20404;-73
2023/08/11 07:59:58;;;;;;;15.23;10.37;;;27.40;99.90;;;;;;5105575;27;20415;-73
2023/08/11 08:02:26;;;;;;;11.98;7.57;;;27.40;99.90;;;;;;5095288;27;20414;-73
2023/08/11 08:04:52;;;;;;;11.40;7.50;;;27.60;99.90;;;;;;5096800;27;20401;-73
2023/08/11 08:07:19;;;;;;;11.47;6.97;;;27.60;99.90;;;;;;5085653;28;20401;-73
2023/08/11 08:09:45;;;;;;;10.85;6.88;;;27.70;99.90;;;;;;5096726;28;20416;-73
2023/08/11 08:12:15;;;;;;;11.93;6.60;;;27.80;99.90;;;;;;5099932;28;20537;-73
2023/08/11 08:14:43;;;;;;;9.60;6.32;;;27.80;99.90;;;;;;5132438;27;20400;-73
2023/08/11 08:17:10;;;;;;;11.27;6.55;;;27.90;99.90;;;;;;5100791;27;20413;-73
2023/08/11 08:19:36;;;;;;;12.07;6.75;;;27.90;99.90;;;;;;5085034;28;20410;-73
2023/08/11 08:22:02;;;;;;;11.80;6.30;;;28.00;99.90;;;;;;5082890;28;21151;-73
2023/08/11 08:24:29;;;;;;;14.20;6.68;;;28.10;99.90;;;;;;5098262;28;20755;-73
2023/08/11 08:26:55;;;;;;;10.82;6.68;;;28.10;99.90;;;;;;5099930;28;20424;-73
2023/08/11 08:29:21;;;;;;;11.48;6.70;;;28.10;99.90;;;;;;5118202;27;20868;-73
2023/08/11 08:31:48;;;;;;;11.13;6.70;;;28.20;99.90;;;;;;5094608;27;20414;-73
2023/08/11 08:34:14;;;;;;;9.55;6.40;;;28.20;99.90;;;;;;5098009;27;20438;-73
2023/08/11 08:36:40;;;;;;;10.25;6.55;;;28.30;99.90;;;;;;5085531;28;20416;-73
2023/08/11 08:39:07;;;;;;;12.20;6.55;;;28.30;99.90;;;;;;5095295;27;20406;-73
2023/08/11 08:41:38;;;;;;;12.05;5.95;;;28.40;99.90;;;;;;5098544;27;20419;-73
2023/08/11 08:44:05;;;;;;;12.77;6.05;;;28.50;99.90;;;;;;5098596;28;20412;-73
2023/08/11 08:46:33;;;;;;;11.32;6.15;;;28.60;99.90;;;;;;5112927;27;20418;-73
2023/08/11 08:49:23;;;;;;;10.88;6.13;;;28.70;99.90;;;;;;5102133;27;20836;-73
2023/08/11 08:51:50;;;;;;;10.32;5.90;;;28.80;99.90;;;;;;5084700;28;20405;-73
2023/08/11 08:54:16;;;;;;;11.40;6.03;;;28.90;99.90;;;;;;5098038;27;21004;-73
2023/08/11 08:56:43;;;;;;;11.63;6.10;;;29.00;99.90;;;;;;5094819;27;20794;-73
2023/08/11 08:59:09;;;;;;;9.20;5.70;;;29.10;99.90;;;;;;5093776;27;20491;-73
2023/08/11 09:01:37;;;;;;;9.63;6.00;;;29.10;99.90;;;;;;5100629;27;20419;-73
2023/08/11 09:04:08;;;;;;;11.50;5.55;;;29.10;99.90;;;;;;5095641;28;20502;-73
2023/08/11 09:06:35;;;;;;;11.07;5.47;;;29.20;99.90;;;;;;5097282;27;20408;-73
2023/08/11 09:09:06;;;;;;;11.75;5.80;;;29.20;99.90;;;;;;5099097;28;20924;-73
2023/08/11 09:11:33;;;;;;;9.48;5.50;;;29.30;99.90;;;;;;5094429;28;20406;-73
2023/08/11 09:14:08;;;;;;;11.75;5.38;;;29.20;99.90;;;;;;5101839;28;20480;-73
2023/08/11 09:16:37;;;;;;;8.25;5.55;;;29.30;99.90;;;;;;5099317;27;20844;-72
2023/08/11 09:19:11;;;;;;;12.07;5.80;;;29.40;99.90;;;;;;5093120;28;20421;-72
2023/08/11 09:21:39;;;;;;;11.18;5.35;;;29.50;99.90;;;;;;5081670;28;20397;-72
2023/08/11 09:24:13;;;;;;;9.57;5.72;;;29.50;99.90;;;;;;5101477;27;20436;-72
2023/08/11 09:26:55;;;;;;;13.57;5.68;;;29.50;99.90;;;;;;5097852;27;20417;-72
2023/08/11 09:29:22;;;;;;;10.77;5.53;;;29.40;99.90;;;;;;5102138;27;20408;-71
2023/08/11 09:31:53;;;;;;;11.10;5.75;;;29.40;99.90;;;;;;5083042;28;20507;-71
2023/08/11 09:34:20;;;;;;;10.90;6.05;;;29.50;99.90;;;;;;5098753;28;20480;-71
2023/08/11 09:36:49;;;;;;;10.07;5.60;;;29.60;99.90;;;;;;5121097;27;20419;-72
2023/08/11 09:39:16;;;;;;;10.68;5.43;;;29.70;99.90;;;;;;5114523;27;20965;-71
2023/08/11 09:41:43;;;;;;;7.37;4.93;;;29.80;99.90;;;;;;5081111;28;20434;-71
2023/08/11 09:44:16;;;;;;;15.10;5.60;;;29.80;99.90;;;;;;5096156;28;20414;-71
2023/08/11 09:46:43;;;;;;;10.48;5.75;;;29.80;99.90;;;;;;5112310;27;20408;-71
2023/08/11 09:49:10;;;;;;;9.40;5.70;;;29.90;99.90;;;;;;5100745;28;20424;-71
2023/08/11 09:51:37;;;;;;;14.10;5.43;;;30.00;99.90;;;;;;5095444;27;20400;-71
2023/08/11 09:54:08;;;;;;;11.05;5.63;;;30.00;99.90;;;;;;5087626;27;20414;-72
2023/08/11 09:56:43;;;;;;;11.80;5.20;;;30.10;99.90;;;;;;5094117;27;20412;-71
2023/08/11 09:59:17;;;;;;;10.88;5.38;;;30.10;99.90;;;;;;5093133;28;20400;-71
2023/08/11 10:01:47;;;;;;;10.57;5.50;;;30.10;99.90;;;;;;5099336;28;20918;-71
2023/08/11 10:04:56;;;;;;;11.07;5.38;;;30.20;99.90;;;;;;5101360;28;20906;-71
2023/08/11 10:07:34;;;;;;;10.13;5.13;;;30.30;99.90;;;;;;5116742;27;20929;-71
2023/08/11 10:10:06;;;;;;;11.07;5.13;;;30.30;99.90;;;;;;5104653;27;20437;-72
2023/08/11 10:12:36;;;;;;;9.40;5.38;;;30.30;99.90;;;;;;5098319;28;20406;-71
2023/08/11 10:15:03;;;;;;;10.45;4.93;;;30.30;99.90;;;;;;5098199;27;20491;-72
2023/08/11 10:17:30;;;;;;;9.15;5.00;;;30.30;99.90;;;;;;5106356;27;20408;-72
2023/08/11 10:20:03;;;;;;;9.93;5.03;;;30.20;99.90;;;;;;5101315;28;20496;-72
2023/08/11 10:22:32;;;;;;;10.68;4.90;;;30.20;99.90;;;;;;5101603;28;20509;-71
2023/08/11 10:25:06;;;;;;;8.98;5.57;;;30.30;99.90;;;;;;5100655;28;20871;-72
2023/08/11 10:27:35;;;;;;;9.07;5.28;;;30.30;99.90;;;;;;5094896;28;21161;-72
2023/08/11 10:30:05;;;;;;;9.73;4.95;;;30.30;99.90;;;;;;5099970;28;20571;-72
2023/08/11 10:32:35;;;;;;;10.00;5.17;;;30.40;99.90;;;;;;5095109;28;20874;-72
2023/08/11 10:35:03;;;;;;;9.80;5.10;;;30.40;99.90;;;;;;5123149;27;20404;-71
2023/08/11 10:37:32;;;;;;;9.68;5.18;;;30.20;99.90;;;;;;5098520;28;20805;-72
2023/08/11 10:40:06;;;;;;;9.30;5.35;;;30.00;99.90;;;;;;5082457;28;20408;-72
2023/08/11 10:42:36;;;;;;;10.48;5.53;;;30.00;99.90;;;;;;5091398;28;20817;-72
2023/08/11 10:45:13;;;;;;;9.10;4.80;;;30.10;99.90;;;;;;5096647;28;20748;-71
2023/08/11 10:48:10;;;;;;;10.68;4.68;;;30.20;99.90;;;;;;5095667;28;20846;-71
2023/08/11 10:50:39;;;;;;;11.32;4.97;;;30.20;99.90;;;;;;5087346;28;20936;-71
2023/08/11 10:53:20;;;;;;;10.68;4.97;;;30.20;99.90;;;;;;5093756;28;20414;-72
2023/08/11 10:56:05;;;;;;;12.80;5.03;;;30.20;99.90;;;;;;5089918;28;20396;-72
2023/08/11 10:58:32;;;;;;;9.10;4.78;;;30.30;99.90;;;;;;5096620;28;20408;-71
2023/08/11 11:01:00;;;;;;;8.30;4.93;;;30.30;99.90;;;;;;5095359;28;20486;-72
2023/08/11 11:03:26;;;;;;;10.00;5.07;;;30.20;99.90;;;;;;5093604;28;20844;-72
2023/08/11 11:05:52;;;;;;;9.43;5.13;;;30.30;99.90;;;;;;5094301;28;20753;-72
2023/08/11 11:08:18;;;;;;;10.70;5.00;;;30.30;99.90;;;;;;5095701;28;20404;-72
2023/08/11 11:10:45;;;;;;;9.25;4.80;;;30.20;99.90;;;;;;5080184;28;20420;-71
2023/08/11 11:13:11;;;;;;;11.63;5.22;;;30.20;99.90;;;;;;5082098;27;20411;-71
2023/08/11 11:15:37;;;;;;;8.25;4.97;;;30.20;99.90;;;;;;5073190;28;20508;-72
2023/08/11 11:18:05;;;;;;;10.63;5.13;;;30.30;99.90;;;;;;5094583;28;20404;-71
2023/08/11 11:20:32;;;;;;;10.95;5.30;;;30.20;99.90;;;;;;5092827;28;20406;-71
2023/08/11 11:22:59;;;;;;;10.25;5.40;;;30.20;99.90;;;;;;5099606;28;20412;-71
2023/08/11 11:25:26;;;;;;;9.82;5.00;;;30.00;99.90;;;;;;5095783;28;20408;-72
2023/08/11 11:27:52;;;;;;;9.38;5.05;;;30.10;99.90;;;;;;5100790;28;20439;-71
2023/08/11 11:30:19;;;;;;;11.07;5.55;;;30.10;99.90;;;;;;5095516;28;20444;-72
2023/08/11 11:32:48;;;;;;;10.32;4.93;;;30.10;99.90;;;;;;5094137;28;20396;-72
2023/08/11 11:35:16;;;;;;;8.63;5.20;;;30.10;99.90;;;;;;5083758;28;20400;-71
2023/08/11 11:37:44;;;;;;;10.93;4.75;;;30.20;99.90;;;;;;5083281;28;20401;-72
2023/08/11 11:40:13;;;;;;;12.25;5.03;;;30.20;99.90;;;;;;5098610;27;20408;-72
2023/08/11 11:42:39;;;;;;;9.93;5.03;;;30.20;99.90;;;;;;5099409;27;20445;-71
2023/08/11 11:45:07;;;;;;;11.10;4.77;;;30.20;99.90;;;;;;5098618;27;20433;-71
2023/08/11 11:47:34;;;;;;;11.27;4.85;;;30.20;99.90;;;;;;5099630;27;20665;-72
2023/08/11 11:50:07;;;;;;;12.43;5.32;;;30.20;99.90;;;;;;5108930;27;20784;-72
2023/08/11 11:52:36;;;;;;;9.48;4.90;;;30.10;99.90;;;;;;5094583;27;20403;-71
2023/08/11 11:55:04;;;;;;;8.55;4.70;;;30.10;99.90;;;;;;5097701;28;20409;-71
2023/08/11 11:57:30;;;;;;;9.05;4.75;;;30.10;99.90;;;;;;5100400;28;20404;-71
2023/08/11 11:59:57;;;;;;;7.57;4.68;;;30.10;99.90;;;;;;5096348;27;20409;-71
2023/08/11 12:02:23;;;;;;;11.80;5.00;;;30.10;99.90;;;;;;5094373;27;20424;-72
2023/08/11 12:04:51;;;;;;;10.87;4.63;;;30.10;99.90;;;;;;5103710;27;20424;-72
2023/08/11 12:07:36;;;;;;;11.73;5.05;;;30.10;99.90;;;;;;5099029;27;20414;-71
2023/08/11 12:10:06;;;;;;;10.07;4.50;;;30.10;99.90;;;;;;5116249;27;20475;-72
2023/08/11 12:12:33;;;;;;;11.53;5.00;;;30.10;99.90;;;;;;5100466;27;20415;-72
2023/08/11 12:15:07;;;;;;;7.75;4.32;;;30.10;99.90;;;;;;5101506;27;20424;-71
2023/08/11 12:17:35;;;;;;;8.55;4.22;;;30.10;99.90;;;;;;5098694;28;20964;-71
2023/08/11 12:20:08;;;;;;;8.57;4.57;;;30.10;99.90;;;;;;5085256;28;20786;-72
2023/08/11 12:22:34;;;;;;;9.68;4.80;;;30.00;99.90;;;;;;5099314;27;20408;-72
2023/08/11 12:25:00;;;;;;;9.80;4.75;;;30.00;99.90;;;;;;5093345;27;20410;-71
2023/08/11 12:27:28;;;;;;;8.57;4.45;;;30.10;99.90;;;;;;5096675;27;20416;-71
2023/08/11 12:29:55;;;;;;;10.32;4.93;;;30.00;99.90;;;;;;5079292;28;20402;-72
2023/08/11 12:32:21;;;;;;;8.82;4.55;;;30.00;99.90;;;;;;5102577;28;20404;-71
2023/08/11 12:34:47;;;;;;;8.95;4.90;;;29.90;99.90;;;;;;5097508;28;20400;-71
2023/08/11 12:37:14;;;;;;;8.73;4.70;;;29.90;99.90;;;;;;5128221;27;20434;-71
2023/08/11 12:39:40;;;;;;;8.98;4.70;;;29.90;99.90;;;;;;5110958;27;20394;-71